Time;durP1;ratioP1;P1;durP2;ratioP2;P2;SDS_P1;SDS_P2;PMS_P1;PMS_P2;Temp;Humidity;BMP_temperature;BMP_pressure;BME280_temperature;BME280_humidity;BME280_pressure;Samples;Min_cycle;Max_cycle;Signal;HPM_P1;HPM_P2
2022/05/21 00:00:57;;;;;;;1.50;1.00;;;13.90;98.20;;;;;;5046814;28;20469;-76
2022/05/21 00:03:26;;;;;;;1.57;1.00;;;13.90;98.20;;;;;;5051235;28;20884;-76
2022/05/21 00:05:53;;;;;;;1.50;1.00;;;13.90;98.20;;;;;;5048833;28;20466;-76
2022/05/21 00:08:21;;;;;;;1.57;1.10;;;13.90;98.20;;;;;;5039546;28;20532;-77
2022/05/21 00:10:48;;;;;;;1.50;1.00;;;13.80;98.20;;;;;;5044645;28;20489;-76
2022/05/21 00:13:15;;;;;;;1.53;1.10;;;13.80;98.20;;;;;;5065826;28;20546;-76
2022/05/21 00:15:47;;;;;;;1.50;1.00;;;13.70;98.20;;;;;;5049982;28;20945;-76
2022/05/21 00:18:14;;;;;;;1.50;1.00;;;13.70;98.20;;;;;;5039315;28;20842;-76
2022/05/21 00:20:51;;;;;;;1.50;1.00;;;13.70;98.20;;;;;;5045196;28;20505;-76
2022/05/21 00:23:24;;;;;;;1.50;1.00;;;13.70;98.20;;;;;;5036972;28;21037;-76
2022/05/21 00:25:59;;;;;;;1.50;1.00;;;13.70;98.20;;;;;;5044725;28;20533;-75
2022/05/21 00:28:27;;;;;;;1.50;1.00;;;13.70;98.20;;;;;;5045158;28;20462;-76
2022/05/21 00:30:56;;;;;;;1.53;1.07;;;13.60;98.20;;;;;;5046007;28;20486;-76
2022/05/21 00:33:24;;;;;;;1.53;1.07;;;13.60;98.20;;;;;;5044604;28;20779;-76
2022/05/21 00:35:52;;;;;;;1.50;1.00;;;13.60;98.20;;;;;;5045786;28;20455;-76
2022/05/21 00:38:21;;;;;;;1.50;1.10;;;13.50;98.20;;;;;;5034802;28;20546;-76
2022/05/21 00:40:51;;;;;;;1.50;1.00;;;13.50;98.20;;;;;;5045143;28;20464;-76
2022/05/21 00:43:40;;;;;;;1.57;1.10;;;13.50;98.20;;;;;;5054783;28;20470;-76
2022/05/21 00:46:11;;;;;;;1.50;1.00;;;13.50;98.20;;;;;;5048937;28;20466;-76
2022/05/21 00:48:40;;;;;;;1.53;1.00;;;13.50;98.20;;;;;;5049361;28;20486;-76
2022/05/21 00:51:13;;;;;;;1.50;1.00;;;13.50;98.20;;;;;;5041545;28;20628;-76
2022/05/21 00:53:42;;;;;;;1.50;1.00;;;13.50;98.20;;;;;;5043324;28;20472;-76
2022/05/21 00:56:13;;;;;;;1.50;1.00;;;13.40;98.20;;;;;;5047444;28;20466;-75
2022/05/21 01:01:32;;;;;;;1.50;1.00;;;13.40;98.20;;;;;;5045054;28;20512;-76
2022/05/21 01:04:01;;;;;;;1.50;1.10;;;13.40;98.20;;;;;;5049866;28;21003;-76
2022/05/21 01:06:30;;;;;;;1.53;1.10;;;13.30;98.20;;;;;;5041794;28;20728;-76
2022/05/21 01:08:58;;;;;;;1.50;1.00;;;13.40;98.20;;;;;;5038291;28;20466;-76
2022/05/21 01:11:25;;;;;;;1.50;1.10;;;13.30;98.20;;;;;;5043670;28;20537;-76
2022/05/21 01:13:53;;;;;;;1.50;0.97;;;13.30;98.20;;;;;;5041921;28;20539;-76
2022/05/21 01:16:21;;;;;;;1.50;1.10;;;13.30;98.20;;;;;;5047793;28;20459;-75
2022/05/21 01:18:50;;;;;;;1.50;1.00;;;13.30;98.20;;;;;;5039514;28;20458;-76
2022/05/21 01:21:17;;;;;;;1.50;1.00;;;13.30;98.20;;;;;;5040969;28;21058;-76
2022/05/21 01:23:46;;;;;;;1.50;1.00;;;13.20;98.20;;;;;;5049291;28;20527;-76
2022/05/21 01:26:20;;;;;;;1.50;1.00;;;13.10;98.20;;;;;;5028396;28;20838;-76
2022/05/21 01:28:49;;;;;;;1.53;1.00;;;13.10;98.20;;;;;;5032196;28;20840;-76
2022/05/21 01:31:18;;;;;;;1.50;1.00;;;13.10;98.20;;;;;;5044431;28;20494;-76
2022/05/21 01:33:46;;;;;;;1.50;1.00;;;13.10;98.20;;;;;;5049067;28;20462;-75
2022/05/21 01:36:14;;;;;;;1.50;1.00;;;13.10;98.20;;;;;;5045661;28;20891;-76
2022/05/21 01:38:43;;;;;;;1.57;1.00;;;13.10;98.20;;;;;;5048279;28;20466;-76
2022/05/21 01:41:12;;;;;;;1.53;1.10;;;13.10;98.20;;;;;;5040346;28;20501;-76
2022/05/21 01:46:26;;;;;;;1.50;1.10;;;13.10;98.20;;;;;;5044081;28;20460;-76
2022/05/21 01:48:56;;;;;;;1.50;1.10;;;13.00;98.20;;;;;;5048328;28;20556;-76
2022/05/21 01:51:25;;;;;;;1.60;1.30;;;13.00;98.20;;;;;;5041751;28;20490;-76
2022/05/21 01:53:52;;;;;;;1.60;1.13;;;13.00;98.20;;;;;;5048222;28;20470;-76
2022/05/21 01:56:23;;;;;;;1.50;1.10;;;12.90;98.20;;;;;;5041496;28;20462;-75
2022/05/21 01:58:50;;;;;;;1.50;1.07;;;12.90;98.20;;;;;;5047793;28;21087;-76
2022/05/21 02:01:18;;;;;;;1.50;1.10;;;12.90;98.20;;;;;;5043020;28;21388;-76
2022/05/21 02:03:45;;;;;;;1.50;1.00;;;12.90;98.20;;;;;;5045500;28;20502;-75
2022/05/21 02:06:14;;;;;;;1.50;1.10;;;12.90;98.20;;;;;;5031109;28;20486;-76
2022/05/21 02:08:42;;;;;;;1.57;1.10;;;12.90;98.20;;;;;;5033431;28;20477;-76
2022/05/21 02:11:10;;;;;;;1.50;1.10;;;12.90;98.20;;;;;;5046049;28;20498;-76
2022/05/21 02:13:42;;;;;;;1.50;1.00;;;12.90;98.20;;;;;;5047764;28;20482;-76
2022/05/21 02:16:08;;;;;;;1.57;1.00;;;12.80;98.20;;;;;;5035667;28;20545;-76
2022/05/21 02:18:37;;;;;;;1.50;1.00;;;12.80;98.20;;;;;;5045439;28;20473;-76
2022/05/21 02:21:07;;;;;;;2.23;2.03;;;12.80;98.20;;;;;;5044202;28;20464;-76
2022/05/21 02:23:35;;;;;;;1.50;1.00;;;12.70;98.20;;;;;;5048902;28;20466;-76
2022/05/21 02:26:03;;;;;;;1.60;1.10;;;12.70;98.20;;;;;;5036874;28;20470;-76
2022/05/21 02:28:31;;;;;;;1.50;1.10;;;12.70;98.20;;;;;;5045574;28;20463;-75
2022/05/21 02:30:59;;;;;;;2.63;1.57;;;12.70;98.20;;;;;;5045364;28;20584;-75
2022/05/21 02:33:27;;;;;;;1.50;1.00;;;12.60;98.20;;;;;;5048195;28;20462;-76
2022/05/21 02:35:55;;;;;;;1.50;1.00;;;12.60;98.20;;;;;;5032356;28;20466;-76
2022/05/21 02:41:11;;;;;;;1.50;1.00;;;12.70;98.20;;;;;;5027203;28;20441;-76
2022/05/21 02:43:39;;;;;;;1.50;1.10;;;12.70;98.20;;;;;;5046456;28;20462;-76
2022/05/21 02:46:09;;;;;;;1.50;1.07;;;12.70;98.20;;;;;;5042149;28;20923;-76
2022/05/21 02:48:37;;;;;;;1.50;1.10;;;12.70;98.20;;;;;;5047945;28;20885;-76
2022/05/21 02:51:05;;;;;;;1.50;1.10;;;12.70;98.20;;;;;;5046046;28;20860;-76
2022/05/21 02:53:33;;;;;;;1.50;1.00;;;12.70;98.20;;;;;;5047872;28;20466;-76
2022/05/21 02:56:05;;;;;;;1.50;1.00;;;12.60;98.20;;;;;;5047374;28;20462;-75
2022/05/21 02:58:33;;;;;;;1.50;1.10;;;12.60;98.20;;;;;;5047747;28;20474;-75
2022/05/21 03:01:01;;;;;;;1.53;1.10;;;12.60;98.20;;;;;;5044583;28;20566;-76
2022/05/21 03:03:31;;;;;;;1.53;1.10;;;12.60;98.20;;;;;;5045901;28;20611;-76
2022/05/21 03:05:59;;;;;;;1.53;1.00;;;12.60;98.20;;;;;;5044270;28;20728;-75
2022/05/21 03:11:12;;;;;;;1.50;1.10;;;12.70;98.20;;;;;;5042864;28;20563;-76
2022/05/21 03:13:39;;;;;;;1.50;1.00;;;12.70;98.20;;;;;;5047275;28;20554;-76
2022/05/21 03:16:07;;;;;;;1.53;1.10;;;12.80;98.20;;;;;;5035760;28;20524;-76
2022/05/21 03:18:38;;;;;;;1.50;1.13;;;12.80;98.20;;;;;;5046435;28;20472;-76
2022/05/21 03:21:05;;;;;;;1.50;1.00;;;12.80;98.20;;;;;;5039791;28;20460;-76
2022/05/21 03:23:32;;;;;;;1.50;1.10;;;12.90;98.20;;;;;;5048254;28;20557;-76
2022/05/21 03:26:00;;;;;;;1.53;1.10;;;12.90;98.20;;;;;;5039087;28;20706;-75
2022/05/21 03:28:29;;;;;;;1.50;1.10;;;12.90;98.20;;;;;;5048943;28;20473;-76
2022/05/21 03:30:58;;;;;;;1.53;1.10;;;13.00;98.20;;;;;;5039329;28;20958;-75
2022/05/21 03:33:25;;;;;;;1.60;1.20;;;13.00;98.20;;;;;;5051376;28;20462;-76
2022/05/21 03:35:53;;;;;;;1.50;1.00;;;13.10;98.20;;;;;;5047281;28;21007;-76
2022/05/21 03:38:22;;;;;;;1.50;1.10;;;13.10;98.20;;;;;;5042998;28;20501;-76
2022/05/21 03:40:50;;;;;;;1.50;1.10;;;13.10;98.20;;;;;;5048038;28;20582;-76
2022/05/21 03:43:19;;;;;;;1.53;1.10;;;13.20;98.20;;;;;;5040713;28;20891;-76
2022/05/21 03:45:47;;;;;;;1.57;1.10;;;13.20;98.20;;;;;;5044951;28;20458;-75
2022/05/21 03:48:15;;;;;;;1.53;1.00;;;13.20;98.20;;;;;;5048250;28;20466;-76
2022/05/21 03:50:44;;;;;;;1.50;1.00;;;13.30;98.20;;;;;;5050286;28;20472;-76
2022/05/21 03:53:16;;;;;;;1.53;1.10;;;13.30;98.20;;;;;;5045437;28;20518;-75
2022/05/21 03:55:44;;;;;;;1.50;1.10;;;13.30;98.20;;;;;;5050596;28;20469;-76
2022/05/21 03:58:11;;;;;;;1.50;1.00;;;13.30;98.20;;;;;;5036384;28;20990;-75
2022/05/21 04:00:40;;;;;;;1.53;1.10;;;13.40;98.20;;;;;;5046774;28;20455;-76
2022/05/21 04:03:09;;;;;;;1.50;1.03;;;13.40;98.20;;;;;;5034428;28;20912;-76
2022/05/21 04:05:38;;;;;;;1.50;1.00;;;13.50;98.20;;;;;;5049865;28;20466;-75
2022/05/21 04:08:06;;;;;;;1.50;1.10;;;13.50;98.20;;;;;;5053555;28;20492;-76
2022/05/21 04:10:36;;;;;;;1.50;0.97;;;13.50;98.20;;;;;;5049716;28;21048;-76
2022/05/21 04:13:06;;;;;;;1.50;1.00;;;13.60;98.20;;;;;;5049887;28;20478;-76
2022/05/21 04:15:34;;;;;;;1.50;1.00;;;13.60;98.20;;;;;;5050917;28;20462;-76
2022/05/21 04:18:03;;;;;;;1.50;1.10;;;13.60;98.20;;;;;;5039464;28;20485;-76
2022/05/21 04:20:32;;;;;;;1.50;1.00;;;13.60;98.20;;;;;;5047941;28;20463;-76
2022/05/21 04:22:59;;;;;;;1.53;1.07;;;13.60;98.20;;;;;;5038778;28;20486;-76
2022/05/21 04:25:26;;;;;;;1.50;1.00;;;13.60;98.20;;;;;;5051413;28;20542;-76
2022/05/21 04:27:55;;;;;;;1.53;1.00;;;13.70;98.20;;;;;;5045122;28;20844;-76
2022/05/21 04:30:28;;;;;;;1.50;1.00;;;13.70;98.20;;;;;;5049963;28;20462;-76
2022/05/21 04:32:58;;;;;;;1.50;1.00;;;13.70;98.20;;;;;;5048659;28;20529;-76
2022/05/21 04:36:17;;;;;;;1.50;1.10;;;13.70;98.20;;;;;;5048800;28;20529;-76
2022/05/21 04:38:16;;;;;;;1.50;1.00;;;13.70;98.20;;;;;;5037314;28;20447;-76
2022/05/21 04:40:44;;;;;;;1.50;1.00;;;13.80;98.20;;;;;;5044006;28;20467;-76
2022/05/21 04:43:12;;;;;;;1.50;1.00;;;13.80;98.20;;;;;;5048508;28;20986;-76
2022/05/21 04:45:40;;;;;;;1.50;1.00;;;13.80;98.20;;;;;;5049669;28;20528;-76
2022/05/21 04:48:10;;;;;;;1.50;0.93;;;13.80;98.20;;;;;;5049469;28;20512;-76
2022/05/21 04:50:40;;;;;;;1.50;1.00;;;13.80;98.20;;;;;;5049167;28;20462;-76
2022/05/21 04:53:07;;;;;;;1.50;1.00;;;13.80;98.20;;;;;;5030970;28;20569;-76
2022/05/21 04:55:34;;;;;;;1.50;1.00;;;13.80;98.20;;;;;;5040284;28;20578;-76
2022/05/21 04:58:01;;;;;;;1.50;1.00;;;13.80;98.20;;;;;;5045724;28;20881;-76
2022/05/21 05:00:30;;;;;;;1.50;1.00;;;13.90;98.20;;;;;;5044125;28;20467;-75
2022/05/21 05:02:57;;;;;;;1.50;1.00;;;13.90;98.20;;;;;;5053249;28;20585;-75
2022/05/21 05:05:23;;;;;;;1.50;1.00;;;13.90;98.20;;;;;;5044955;28;20549;-76
2022/05/21 05:07:51;;;;;;;1.50;1.00;;;13.90;98.20;;;;;;5039553;28;20538;-75
2022/05/21 05:10:19;;;;;;;1.50;1.00;;;13.90;98.20;;;;;;5042910;28;20455;-75
2022/05/21 05:12:47;;;;;;;1.50;1.00;;;14.00;98.20;;;;;;5036045;28;21037;-75
2022/05/21 05:15:14;;;;;;;1.50;1.00;;;14.00;98.20;;;;;;5043444;28;20471;-75
2022/05/21 05:17:43;;;;;;;1.50;1.00;;;14.00;98.20;;;;;;5044768;28;20465;-76
2022/05/21 05:20:11;;;;;;;1.50;1.10;;;14.00;98.20;;;;;;5042200;28;20469;-75
2022/05/21 05:22:39;;;;;;;1.50;0.97;;;14.00;98.20;;;;;;5036975;28;20556;-75
2022/05/21 05:25:07;;;;;;;1.50;1.10;;;14.10;98.20;;;;;;5050095;28;20466;-75
2022/05/21 05:27:35;;;;;;;1.50;1.00;;;14.10;98.20;;;;;;5049213;28;21000;-75
2022/05/21 05:30:03;;;;;;;1.50;1.00;;;14.10;98.20;;;;;;5048998;28;20557;-75
2022/05/21 05:32:32;;;;;;;1.57;1.00;;;14.10;98.20;;;;;;5042141;28;20486;-75
2022/05/21 05:35:01;;;;;;;1.50;1.00;;;14.20;98.20;;;;;;5046623;28;20463;-75
2022/05/21 05:37:29;;;;;;;1.50;1.00;;;14.20;98.20;;;;;;5056870;28;21020;-76
2022/05/21 05:39:57;;;;;;;1.50;1.00;;;14.30;98.20;;;;;;5042716;28;20473;-75
2022/05/21 05:42:24;;;;;;;1.50;1.00;;;14.30;98.20;;;;;;5047081;28;20478;-76
2022/05/21 05:44:52;;;;;;;1.50;1.10;;;14.40;98.20;;;;;;5048802;28;20497;-75
2022/05/21 05:47:20;;;;;;;1.50;1.00;;;14.40;98.20;;;;;;5049505;28;20489;-76
2022/05/21 05:49:47;;;;;;;1.50;0.90;;;14.50;98.20;;;;;;5047796;28;21065;-75
2022/05/21 05:52:16;;;;;;;1.50;1.00;;;14.50;98.20;;;;;;5047219;28;20490;-75
2022/05/21 05:54:44;;;;;;;1.50;1.00;;;14.60;98.20;;;;;;5049211;28;20473;-76
2022/05/21 05:57:12;;;;;;;1.50;1.00;;;14.60;98.20;;;;;;5048605;28;20465;-73
2022/05/21 05:59:48;;;;;;;1.50;1.00;;;14.70;98.20;;;;;;5047908;28;20474;-76
2022/05/21 06:05:01;;;;;;;1.50;1.00;;;14.70;98.20;;;;;;5048589;28;21279;-75
2022/05/21 06:07:30;;;;;;;1.50;1.00;;;14.80;98.20;;;;;;5031369;28;20474;-75
2022/05/21 06:10:03;;;;;;;1.53;1.00;;;14.90;98.20;;;;;;5040462;28;20489;-75
2022/05/21 06:12:31;;;;;;;1.50;1.00;;;14.90;98.20;;;;;;5047376;28;20891;-76
2022/05/21 06:14:59;;;;;;;1.50;0.90;;;15.00;98.20;;;;;;5049795;28;20823;-75
2022/05/21 06:17:27;;;;;;;1.50;0.90;;;14.90;98.20;;;;;;5033195;28;20548;-75
2022/05/21 06:19:54;;;;;;;1.50;0.90;;;14.90;98.20;;;;;;5047910;28;20913;-75
2022/05/21 06:22:22;;;;;;;1.50;1.00;;;15.00;98.20;;;;;;5046057;28;20911;-75
2022/05/21 06:24:51;;;;;;;1.50;0.90;;;15.00;98.20;;;;;;5048517;28;20470;-74
2022/05/21 06:27:19;;;;;;;1.50;1.00;;;15.00;98.20;;;;;;5035823;28;20982;-75
2022/05/21 06:29:48;;;;;;;1.50;1.00;;;15.00;98.20;;;;;;5047393;28;20545;-75
2022/05/21 06:32:15;;;;;;;1.50;1.00;;;15.00;98.20;;;;;;5046655;28;20815;-75
2022/05/21 06:34:43;;;;;;;1.50;0.90;;;15.00;98.20;;;;;;5049342;28;20473;-75
2022/05/21 06:37:12;;;;;;;1.53;1.00;;;15.10;98.20;;;;;;5042729;28;20481;-76
2022/05/21 06:39:42;;;;;;;1.53;1.00;;;15.10;98.20;;;;;;5054120;28;21024;-75
2022/05/21 06:42:13;;;;;;;1.50;1.00;;;15.10;98.20;;;;;;5046489;28;20497;-75
2022/05/21 06:44:42;;;;;;;1.50;0.90;;;15.10;98.20;;;;;;5048708;28;20488;-75
2022/05/21 06:47:11;;;;;;;1.50;0.90;;;15.20;98.20;;;;;;5034029;28;20488;-76
2022/05/21 06:49:41;;;;;;;1.50;0.90;;;15.20;98.20;;;;;;5034304;28;20462;-75
2022/05/21 06:52:08;;;;;;;1.50;0.90;;;15.30;98.20;;;;;;5044279;28;21064;-76
2022/05/21 06:54:35;;;;;;;1.50;1.00;;;15.40;98.20;;;;;;5046230;28;20541;-75
2022/05/21 06:57:02;;;;;;;1.50;1.00;;;15.50;98.20;;;;;;5030110;28;21135;-76
2022/05/21 06:59:31;;;;;;;1.50;1.00;;;15.60;98.20;;;;;;5050335;28;20458;-76
2022/05/21 07:01:58;;;;;;;1.50;1.00;;;15.60;98.20;;;;;;5049542;28;20871;-76
2022/05/21 07:09:50;;;;;;;1.50;0.97;;;15.70;98.20;;;;;;4992169;28;20437;-76
2022/05/21 07:12:17;;;;;;;1.50;1.00;;;15.70;98.20;;;;;;4995244;28;20561;-77
2022/05/21 07:14:46;;;;;;;1.50;0.90;;;15.70;98.20;;;;;;4993078;28;20576;-74
2022/05/21 07:17:13;;;;;;;1.50;0.90;;;15.60;98.20;;;;;;4993616;28;20467;-76
2022/05/21 07:19:39;;;;;;;1.50;0.90;;;15.60;98.20;;;;;;4990898;28;20891;-74
2022/05/21 07:22:08;;;;;;;1.50;1.00;;;15.60;98.20;;;;;;4992090;28;20731;-74
2022/05/21 07:24:39;;;;;;;1.50;0.97;;;15.60;98.20;;;;;;4990948;28;20527;-75
2022/05/21 07:27:06;;;;;;;1.50;1.00;;;15.60;98.20;;;;;;4992695;28;20531;-74
2022/05/21 07:29:33;;;;;;;1.77;1.60;;;15.60;98.20;;;;;;4990483;28;20465;-74
2022/05/21 07:32:01;;;;;;;1.50;1.00;;;15.60;98.20;;;;;;4997693;28;20885;-74
2022/05/21 07:34:28;;;;;;;1.50;0.90;;;15.70;98.20;;;;;;4991027;28;20496;-74
2022/05/21 07:36:55;;;;;;;1.50;0.90;;;15.80;98.20;;;;;;4990431;28;20549;-74
2022/05/21 07:39:22;;;;;;;1.50;1.00;;;15.90;98.20;;;;;;4987363;28;20484;-75
2022/05/21 07:41:49;;;;;;;1.50;1.00;;;16.00;98.20;;;;;;4995153;28;20471;-74
2022/05/21 07:44:16;;;;;;;1.50;1.00;;;16.00;98.20;;;;;;4991460;28;20532;-75
2022/05/21 07:46:43;;;;;;;1.50;1.00;;;16.10;98.20;;;;;;4987422;28;21022;-74
2022/05/21 07:49:11;;;;;;;1.50;0.90;;;16.20;98.20;;;;;;4998553;28;21014;-76
2022/05/21 07:51:38;;;;;;;1.50;0.90;;;16.30;98.20;;;;;;4988348;28;20548;-74
2022/05/21 07:54:05;;;;;;;1.50;1.00;;;16.40;98.20;;;;;;4996773;28;20489;-74
2022/05/21 07:56:33;;;;;;;1.50;1.00;;;16.60;98.20;;;;;;4993609;28;20490;-74
2022/05/21 07:58:59;;;;;;;1.50;1.00;;;16.70;98.20;;;;;;4990391;28;20476;-74
2022/05/21 08:01:26;;;;;;;1.50;1.00;;;16.90;97.20;;;;;;4976614;28;20491;-74
2022/05/21 08:03:53;;;;;;;1.50;0.90;;;17.00;97.70;;;;;;4976031;28;20981;-74
2022/05/21 08:06:22;;;;;;;1.50;0.90;;;17.10;97.00;;;;;;4975707;28;20591;-74
2022/05/21 08:08:52;;;;;;;1.50;0.90;;;17.30;96.50;;;;;;4984551;28;20827;-74
2022/05/21 08:11:19;;;;;;;1.50;1.00;;;17.60;95.50;;;;;;4992426;28;20467;-75
2022/05/21 08:13:46;;;;;;;1.50;1.00;;;17.80;94.40;;;;;;4990002;28;20493;-74
2022/05/21 08:16:14;;;;;;;1.50;0.90;;;18.10;93.90;;;;;;4987830;28;20571;-74
2022/05/21 08:18:41;;;;;;;1.50;0.97;;;18.30;92.20;;;;;;4989298;28;20496;-74
2022/05/21 08:21:08;;;;;;;1.50;0.93;;;18.30;92.10;;;;;;4988159;28;20575;-75
2022/05/21 08:29:06;;;;;;;1.50;1.10;;;18.20;92.00;;;;;;4982606;28;20444;-75
2022/05/21 08:31:33;;;;;;;1.50;0.90;;;18.10;91.90;;;;;;4989810;28;20538;-75
2022/05/21 08:34:01;;;;;;;1.50;0.90;;;18.10;92.70;;;;;;4984754;28;20493;-75
2022/05/21 08:36:28;;;;;;;1.50;1.00;;;18.20;93.80;;;;;;4987782;28;20496;-75
2022/05/21 08:38:56;;;;;;;1.50;1.00;;;18.60;93.40;;;;;;4979254;28;20466;-75
2022/05/21 08:41:26;;;;;;;1.53;0.90;;;19.00;92.20;;;;;;4987722;28;20563;-75
2022/05/21 08:44:02;;;;;;;1.50;0.90;;;19.30;89.60;;;;;;4988316;28;20544;-75
2022/05/21 08:46:38;;;;;;;1.50;0.90;;;19.30;89.40;;;;;;4988218;28;20479;-74
2022/05/21 08:49:08;;;;;;;1.50;0.90;;;19.40;88.80;;;;;;4984506;28;20535;-75
2022/05/21 08:51:43;;;;;;;1.50;0.90;;;19.30;89.60;;;;;;4986344;28;20472;-76
2022/05/21 08:54:13;;;;;;;1.50;0.90;;;19.40;88.50;;;;;;4985144;28;20571;-75
2022/05/21 08:56:41;;;;;;;1.50;0.90;;;19.30;88.50;;;;;;4982599;28;20505;-75
2022/05/21 08:59:10;;;;;;;1.50;0.90;;;19.40;88.40;;;;;;4984929;28;20617;-75
2022/05/21 09:01:42;;;;;;;1.50;0.90;;;19.60;87.50;;;;;;4980435;28;20495;-75
2022/05/21 09:04:11;;;;;;;1.50;0.90;;;19.70;87.30;;;;;;4993599;28;20547;-75
2022/05/21 09:06:51;;;;;;;1.50;0.90;;;20.00;85.90;;;;;;4977344;28;20480;-75
2022/05/21 09:09:37;;;;;;;1.50;0.90;;;20.00;86.70;;;;;;4989005;28;20911;-75
2022/05/21 09:12:11;;;;;;;1.50;0.90;;;19.90;85.80;;;;;;4986190;28;20577;-75
2022/05/21 09:14:43;;;;;;;1.50;0.90;;;19.80;86.20;;;;;;4986397;28;20503;-75
2022/05/21 09:17:11;;;;;;;1.50;0.90;;;19.70;86.60;;;;;;4986109;28;20528;-75
2022/05/21 09:19:42;;;;;;;1.50;0.90;;;19.60;86.00;;;;;;4984808;28;20469;-74
2022/05/21 09:22:13;;;;;;;1.50;0.90;;;19.40;85.70;;;;;;4985364;28;20559;-75
2022/05/21 09:24:45;;;;;;;1.50;0.90;;;19.70;86.80;;;;;;4986219;28;20472;-75
2022/05/21 09:27:25;;;;;;;1.50;0.90;;;20.10;85.90;;;;;;4984270;28;20535;-74
2022/05/21 09:29:55;;;;;;;1.50;0.90;;;20.10;85.20;;;;;;4982733;28;20469;-74
2022/05/21 09:32:25;;;;;;;1.50;0.90;;;20.30;84.80;;;;;;4984859;28;20477;-75
2022/05/21 09:35:06;;;;;;;1.50;0.90;;;20.50;84.20;;;;;;4974149;28;20525;-75
2022/05/21 09:37:34;;;;;;;1.50;0.90;;;20.60;83.60;;;;;;4984337;28;20472;-76
2022/05/21 09:40:05;;;;;;;1.50;0.90;;;20.50;83.30;;;;;;4983837;28;20476;-75
2022/05/21 09:45:27;;;;;;;1.50;0.90;;;20.40;84.00;;;;;;4984766;28;20475;-75
2022/05/21 09:48:13;;;;;;;1.50;0.90;;;20.40;84.30;;;;;;4985406;28;20933;-75
2022/05/21 09:50:45;;;;;;;1.50;0.90;;;20.50;84.20;;;;;;4982679;28;20473;-75
2022/05/21 09:53:26;;;;;;;1.50;0.90;;;20.50;84.30;;;;;;4986385;28;20488;-74
2022/05/21 09:56:05;;;;;;;1.50;0.90;;;20.60;83.50;;;;;;4984895;28;20561;-74
2022/05/21 09:58:36;;;;;;;1.50;0.90;;;20.70;82.50;;;;;;4983148;28;20519;-74
2022/05/21 10:01:05;;;;;;;1.50;0.90;;;20.80;82.30;;;;;;4973287;28;20461;-73
2022/05/21 10:03:46;;;;;;;1.50;0.90;;;21.10;82.80;;;;;;4987597;28;21024;-74
2022/05/21 10:06:28;;;;;;;1.50;0.90;;;21.50;82.40;;;;;;4982852;28;20495;-73
2022/05/21 10:11:58;;;;;;;1.50;0.90;;;21.80;81.10;;;;;;4981407;28;20492;-74
2022/05/21 10:14:32;;;;;;;1.50;0.90;;;22.00;80.70;;;;;;4982597;28;21020;-74
2022/05/21 10:17:03;;;;;;;1.50;0.90;;;22.40;80.40;;;;;;4983547;28;20487;-76
2022/05/21 10:19:41;;;;;;;1.50;0.90;;;22.50;79.50;;;;;;4986822;28;20961;-73
2022/05/21 10:22:26;;;;;;;1.50;0.90;;;22.60;79.40;;;;;;4974203;28;20495;-74
2022/05/21 10:25:01;;;;;;;1.50;0.90;;;22.70;79.20;;;;;;4982569;28;21350;-74
2022/05/21 10:28:06;;;;;;;1.50;0.90;;;23.00;79.60;;;;;;4985508;28;20468;-75
2022/05/21 10:30:46;;;;;;;1.50;0.90;;;23.30;77.20;;;;;;4981794;28;20600;-74
2022/05/21 10:33:23;;;;;;;1.50;0.90;;;23.30;77.30;;;;;;4984981;28;20468;-74
2022/05/21 10:36:04;;;;;;;1.50;0.90;;;23.00;77.30;;;;;;4973911;28;20496;-75
2022/05/21 10:39:00;;;;;;;1.50;0.90;;;22.60;76.90;;;;;;4988000;28;20477;-74
2022/05/21 10:41:41;;;;;;;1.50;1.00;;;22.40;76.80;;;;;;4983910;28;20465;-74
2022/05/21 10:44:21;;;;;;;1.47;0.90;;;22.40;77.90;;;;;;4983380;28;20468;-75
2022/05/21 10:47:00;;;;;;;1.50;0.80;;;22.50;77.40;;;;;;4982483;28;20523;-74
2022/05/21 10:50:00;;;;;;;1.47;0.83;;;22.50;78.00;;;;;;4983279;28;20969;-74
2022/05/21 10:52:38;;;;;;;1.50;0.90;;;22.50;77.80;;;;;;4972759;28;20473;-75
2022/05/21 10:55:18;;;;;;;1.47;0.90;;;22.30;78.10;;;;;;4983174;28;20574;-76
2022/05/21 10:58:01;;;;;;;1.43;0.90;;;22.50;79.30;;;;;;4986122;28;20476;-75
2022/05/21 11:00:39;;;;;;;1.50;0.90;;;22.90;76.80;;;;;;4982967;28;20579;-75
2022/05/21 11:03:41;;;;;;;1.50;0.90;;;23.30;75.60;;;;;;4984464;28;20832;-75
2022/05/21 11:06:43;;;;;;;1.50;0.90;;;23.50;75.80;;;;;;4969198;28;20519;-75
2022/05/21 11:09:19;;;;;;;1.43;0.87;;;23.10;75.00;;;;;;4949090;28;20468;-75
2022/05/21 11:11:58;;;;;;;1.47;0.83;;;22.80;76.30;;;;;;4980739;28;20468;-74
2022/05/21 11:14:32;;;;;;;1.50;0.90;;;22.60;77.00;;;;;;4983626;28;21029;-74
2022/05/21 11:17:13;;;;;;;1.47;0.83;;;22.30;77.80;;;;;;4984335;28;20854;-75
2022/05/21 11:19:45;;;;;;;1.50;0.90;;;22.20;78.50;;;;;;4984451;28;21013;-75
2022/05/21 11:22:18;;;;;;;1.50;0.90;;;22.20;78.60;;;;;;4982175;28;20875;-75
2022/05/21 11:24:55;;;;;;;1.47;0.90;;;22.30;78.00;;;;;;4981179;28;20571;-75
2022/05/21 11:27:27;;;;;;;1.47;0.90;;;22.30;77.80;;;;;;4983919;28;20488;-76
2022/05/21 11:29:59;;;;;;;1.47;0.90;;;22.50;77.90;;;;;;4982601;28;20551;-75
2022/05/21 11:38:20;;;;;;;1.47;0.83;;;23.80;73.80;;;;;;4985088;28;20596;-76
2022/05/21 11:41:24;;;;;;;1.50;0.90;;;24.20;72.90;;;;;;4980668;28;20572;-75
2022/05/21 11:46:56;;;;;;;1.50;0.90;;;24.90;73.70;;;;;;4987280;28;20843;-76
2022/05/21 11:49:41;;;;;;;1.50;0.90;;;25.10;71.60;;;;;;4987711;28;20494;-77
2022/05/21 11:52:46;;;;;;;1.50;0.80;;;25.00;70.60;;;;;;4987333;28;20845;-76
2022/05/21 11:55:20;;;;;;;1.50;0.90;;;25.00;71.40;;;;;;4987203;28;20496;-76
2022/05/21 11:57:49;;;;;;;1.50;0.90;;;25.10;69.90;;;;;;4979080;28;20566;-76
2022/05/21 12:00:44;;;;;;;1.50;0.90;;;25.40;69.70;;;;;;4983002;28;20483;-76
2022/05/21 12:03:23;;;;;;;1.43;0.80;;;25.80;70.20;;;;;;4983240;28;21080;-77
2022/05/21 12:06:25;;;;;;;1.50;0.80;;;25.90;68.60;;;;;;4981147;28;20518;-77
2022/05/21 12:09:21;;;;;;;1.50;0.90;;;26.20;69.30;;;;;;4982538;28;20492;-76
2022/05/21 12:11:49;;;;;;;1.40;0.80;;;26.30;68.10;;;;;;4981953;28;20491;-76
2022/05/21 12:14:48;;;;;;;1.47;0.90;;;26.50;67.30;;;;;;4984738;28;20488;-76
2022/05/21 12:17:43;;;;;;;1.47;0.80;;;26.60;67.20;;;;;;4984672;28;20468;-76
2022/05/21 12:20:11;;;;;;;1.43;0.80;;;26.50;67.40;;;;;;4984844;28;21013;-76
2022/05/21 12:22:52;;;;;;;1.50;0.80;;;26.10;67.60;;;;;;4985106;28;20500;-75
2022/05/21 12:25:59;;;;;;;1.50;0.90;;;25.70;68.30;;;;;;4983481;28;20480;-76
2022/05/21 12:28:47;;;;;;;1.50;0.90;;;25.30;68.70;;;;;;4985561;28;20787;-76
2022/05/21 12:31:21;;;;;;;1.50;0.80;;;25.10;67.30;;;;;;4983481;28;21022;-75
2022/05/21 12:34:03;;;;;;;1.50;0.83;;;24.90;68.60;;;;;;4985114;28;20476;-76
2022/05/21 12:36:47;;;;;;;1.43;0.80;;;24.80;69.10;;;;;;4983106;28;21269;-76
2022/05/21 12:39:22;;;;;;;1.40;0.90;;;24.90;68.90;;;;;;4981680;28;20903;-75
2022/05/21 12:41:53;;;;;;;1.50;0.90;;;25.00;68.80;;;;;;4983410;28;20483;-74
2022/05/21 12:44:39;;;;;;;1.50;0.90;;;24.90;68.40;;;;;;4988739;28;20551;-75
2022/05/21 12:47:07;;;;;;;1.43;0.80;;;24.80;67.50;;;;;;4986244;28;20487;-75
2022/05/21 12:49:37;;;;;;;1.40;0.80;;;24.90;68.30;;;;;;4983940;28;20467;-75
2022/05/21 12:52:05;;;;;;;1.43;0.80;;;24.80;68.00;;;;;;4981104;28;20493;-75
2022/05/21 12:54:34;;;;;;;1.43;0.90;;;24.70;70.40;;;;;;4981196;28;20957;-75
2022/05/21 12:57:12;;;;;;;1.47;0.90;;;24.50;69.20;;;;;;4983764;28;20515;-76
2022/05/21 12:59:40;;;;;;;2.57;1.67;;;24.60;70.20;;;;;;4985375;28;20500;-76
2022/05/21 13:02:14;;;;;;;1.50;0.80;;;25.00;69.40;;;;;;4975701;28;20711;-76
2022/05/21 13:04:45;;;;;;;1.40;0.90;;;25.30;71.00;;;;;;4984019;28;20496;-75
2022/05/21 13:07:16;;;;;;;1.50;0.80;;;25.70;70.50;;;;;;4981426;28;20493;-77
2022/05/21 13:09:54;;;;;;;1.50;0.80;;;26.00;66.80;;;;;;4982460;28;20579;-75
2022/05/21 13:12:23;;;;;;;1.43;0.80;;;26.10;68.00;;;;;;4982789;28;20652;-76
2022/05/21 13:14:51;;;;;;;1.50;0.90;;;26.20;67.60;;;;;;4983975;28;20500;-76
2022/05/21 13:17:30;;;;;;;1.50;0.80;;;26.30;66.90;;;;;;4983848;28;20456;-77
2022/05/21 13:20:10;;;;;;;1.60;1.20;;;26.50;64.50;;;;;;4985076;28;20465;-75
2022/05/21 13:23:05;;;;;;;1.43;0.90;;;26.50;66.10;;;;;;4985136;28;20547;-75
2022/05/21 13:25:33;;;;;;;1.43;0.90;;;26.50;68.50;;;;;;4977979;28;20941;-74
2022/05/21 13:28:01;;;;;;;1.50;0.80;;;26.70;68.10;;;;;;4986450;28;20908;-74
2022/05/21 13:30:36;;;;;;;1.50;0.80;;;27.00;67.50;;;;;;4981596;28;20461;-75
2022/05/21 13:33:13;;;;;;;1.50;0.80;;;27.10;65.00;;;;;;4989235;28;20487;-75
2022/05/21 13:35:44;;;;;;;1.43;0.80;;;27.30;66.00;;;;;;4981435;28;20488;-77
2022/05/21 13:38:14;;;;;;;1.47;0.90;;;27.40;63.70;;;;;;4984025;28;21000;-76
2022/05/21 13:40:49;;;;;;;1.47;0.80;;;27.40;62.10;;;;;;4980791;28;21004;-75
2022/05/21 13:43:18;;;;;;;1.47;0.90;;;27.00;64.00;;;;;;4983421;28;20928;-75
2022/05/21 13:45:55;;;;;;;1.50;0.80;;;26.50;64.90;;;;;;4982683;28;20484;-76
2022/05/21 13:48:25;;;;;;;1.43;0.90;;;26.30;67.10;;;;;;4983460;28;20527;-75
2022/05/21 13:50:53;;;;;;;1.47;0.80;;;26.40;66.90;;;;;;4972599;28;20460;-75